sensor_id;sensor_type;location;lat;lon;timestamp;P1;durP1;ratioP1;P2;durP2;ratioP2
22768;SDS011;13001;51.968;5.918;2023-03-08T00:01:47;368.33;;;345.07;;
22768;SDS011;13001;51.968;5.918;2023-03-08T00:04:14;409.27;;;383.17;;
22768;SDS011;13001;51.968;5.918;2023-03-08T00:06:42;374.87;;;351.03;;
22768;SDS011;13001;51.968;5.918;2023-03-08T00:09:10;373.07;;;348.93;;
22768;SDS011;13001;51.968;5.918;2023-03-08T00:11:38;447.60;;;418.93;;
22768;SDS011;13001;51.968;5.918;2023-03-08T00:14:05;390.73;;;365.80;;
22768;SDS011;13001;51.968;5.918;2023-03-08T00:16:32;510.40;;;476.83;;
22768;SDS011;13001;51.968;5.918;2023-03-08T00:19:01;510.43;;;477.03;;
22768;SDS011;13001;51.968;5.918;2023-03-08T00:21:28;488.27;;;456.57;;
22768;SDS011;13001;51.968;5.918;2023-03-08T00:23:56;381.17;;;356.67;;
22768;SDS011;13001;51.968;5.918;2023-03-08T00:26:23;362.67;;;339.17;;
22768;SDS011;13001;51.968;5.918;2023-03-08T00:28:50;401.47;;;375.97;;
22768;SDS011;13001;51.968;5.918;2023-03-08T00:31:18;421.47;;;393.83;;
22768;SDS011;13001;51.968;5.918;2023-03-08T00:33:45;487.47;;;455.17;;
22768;SDS011;13001;51.968;5.918;2023-03-08T00:36:16;486.53;;;454.53;;
22768;SDS011;13001;51.968;5.918;2023-03-08T00:38:44;455.47;;;425.60;;
22768;SDS011;13001;51.968;5.918;2023-03-08T00:41:11;531.90;;;496.57;;
22768;SDS011;13001;51.968;5.918;2023-03-08T00:43:38;476.60;;;444.73;;
22768;SDS011;13001;51.968;5.918;2023-03-08T00:46:07;495.90;;;463.30;;
22768;SDS011;13001;51.968;5.918;2023-03-08T00:48:35;514.53;;;480.13;;
22768;SDS011;13001;51.968;5.918;2023-03-08T00:51:02;533.57;;;498.17;;
22768;SDS011;13001;51.968;5.918;2023-03-08T00:53:29;518.83;;;483.73;;
22768;SDS011;13001;51.968;5.918;2023-03-08T00:55:57;530.10;;;494.17;;
22768;SDS011;13001;51.968;5.918;2023-03-08T00:58:26;542.03;;;505.40;;
22768;SDS011;13001;51.968;5.918;2023-03-08T01:00:54;472.57;;;441.03;;
22768;SDS011;13001;51.968;5.918;2023-03-08T01:03:21;411.73;;;385.00;;
22768;SDS011;13001;51.968;5.918;2023-03-08T01:05:50;479.37;;;447.30;;
22768;SDS011;13001;51.968;5.918;2023-03-08T01:08:18;384.73;;;359.87;;
22768;SDS011;13001;51.968;5.918;2023-03-08T01:10:46;389.33;;;364.10;;
22768;SDS011;13001;51.968;5.918;2023-03-08T01:13:14;418.67;;;391.10;;
22768;SDS011;13001;51.968;5.918;2023-03-08T01:15:41;471.03;;;439.43;;
22768;SDS011;13001;51.968;5.918;2023-03-08T01:18:08;467.57;;;436.50;;
22768;SDS011;13001;51.968;5.918;2023-03-08T01:20:36;524.23;;;488.67;;
22768;SDS011;13001;51.968;5.918;2023-03-08T01:23:03;394.17;;;368.83;;
22768;SDS011;13001;51.968;5.918;2023-03-08T01:25:30;435.40;;;406.83;;
22768;SDS011;13001;51.968;5.918;2023-03-08T01:27:58;382.43;;;357.50;;
22768;SDS011;13001;51.968;5.918;2023-03-08T01:30:25;404.87;;;378.97;;
22768;SDS011;13001;51.968;5.918;2023-03-08T01:32:52;463.17;;;432.07;;
22768;SDS011;13001;51.968;5.918;2023-03-08T01:35:19;449.27;;;419.20;;
22768;SDS011;13001;51.968;5.918;2023-03-08T01:37:49;532.87;;;496.33;;
22768;SDS011;13001;51.968;5.918;2023-03-08T01:40:17;486.97;;;453.50;;
22768;SDS011;13001;51.968;5.918;2023-03-08T01:42:44;419.77;;;392.63;;
22768;SDS011;13001;51.968;5.918;2023-03-08T01:47:41;350.67;;;328.10;;
22768;SDS011;13001;51.968;5.918;2023-03-08T01:50:08;403.30;;;377.13;;
22768;SDS011;13001;51.968;5.918;2023-03-08T01:52:40;438.57;;;409.97;;
22768;SDS011;13001;51.968;5.918;2023-03-08T01:55:11;375.70;;;351.30;;
22768;SDS011;13001;51.968;5.918;2023-03-08T01:57:51;414.23;;;387.57;;
22768;SDS011;13001;51.968;5.918;2023-03-08T02:00:20;428.77;;;400.77;;
22768;SDS011;13001;51.968;5.918;2023-03-08T02:03:03;425.37;;;397.70;;
22768;SDS011;13001;51.968;5.918;2023-03-08T02:05:26;467.53;;;435.80;;
22768;SDS011;13001;51.968;5.918;2023-03-08T02:07:53;396.60;;;370.73;;
22768;SDS011;13001;51.968;5.918;2023-03-08T02:10:21;403.60;;;377.03;;
22768;SDS011;13001;51.968;5.918;2023-03-08T02:12:48;329.83;;;308.60;;
22768;SDS011;13001;51.968;5.918;2023-03-08T02:15:16;309.40;;;289.40;;
22768;SDS011;13001;51.968;5.918;2023-03-08T02:17:44;320.83;;;299.87;;
22768;SDS011;13001;51.968;5.918;2023-03-08T02:22:40;324.67;;;303.40;;
22768;SDS011;13001;51.968;5.918;2023-03-08T02:27:40;323.13;;;301.77;;
22768;SDS011;13001;51.968;5.918;2023-03-08T02:30:08;314.23;;;293.57;;
22768;SDS011;13001;51.968;5.918;2023-03-08T02:32:36;292.47;;;272.87;;
22768;SDS011;13001;51.968;5.918;2023-03-08T02:35:03;321.23;;;300.10;;
22768;SDS011;13001;51.968;5.918;2023-03-08T02:37:31;311.33;;;290.83;;
22768;SDS011;13001;51.968;5.918;2023-03-08T02:39:58;317.80;;;296.70;;
22768;SDS011;13001;51.968;5.918;2023-03-08T02:42:26;329.50;;;307.50;;
22768;SDS011;13001;51.968;5.918;2023-03-08T02:44:53;336.93;;;314.10;;
22768;SDS011;13001;51.968;5.918;2023-03-08T02:47:20;334.13;;;311.60;;
22768;SDS011;13001;51.968;5.918;2023-03-08T02:49:48;344.20;;;321.03;;
22768;SDS011;13001;51.968;5.918;2023-03-08T02:52:15;339.40;;;315.97;;
22768;SDS011;13001;51.968;5.918;2023-03-08T02:54:42;332.13;;;308.87;;
22768;SDS011;13001;51.968;5.918;2023-03-08T02:57:10;330.47;;;307.53;;
22768;SDS011;13001;51.968;5.918;2023-03-08T02:59:38;335.60;;;311.87;;
22768;SDS011;13001;51.968;5.918;2023-03-08T03:02:05;349.53;;;322.60;;
22768;SDS011;13001;51.968;5.918;2023-03-08T03:04:32;347.33;;;319.57;;
22768;SDS011;13001;51.968;5.918;2023-03-08T03:07:00;340.73;;;316.27;;
22768;SDS011;13001;51.968;5.918;2023-03-08T03:09:27;336.97;;;309.43;;
22768;SDS011;13001;51.968;5.918;2023-03-08T03:11:54;328.80;;;305.90;;
22768;SDS011;13001;51.968;5.918;2023-03-08T03:14:21;338.70;;;315.60;;
22768;SDS011;13001;51.968;5.918;2023-03-08T03:16:49;336.07;;;313.17;;
22768;SDS011;13001;51.968;5.918;2023-03-08T03:19:16;346.83;;;322.03;;
22768;SDS011;13001;51.968;5.918;2023-03-08T03:21:43;358.40;;;333.77;;
22768;SDS011;13001;51.968;5.918;2023-03-08T03:24:10;346.03;;;322.67;;
22768;SDS011;13001;51.968;5.918;2023-03-08T03:26:38;340.10;;;316.90;;
22768;SDS011;13001;51.968;5.918;2023-03-08T03:29:05;339.63;;;316.00;;
22768;SDS011;13001;51.968;5.918;2023-03-08T03:31:32;347.37;;;323.70;;
22768;SDS011;13001;51.968;5.918;2023-03-08T03:34:00;336.37;;;312.27;;
22768;SDS011;13001;51.968;5.918;2023-03-08T03:36:27;336.80;;;313.43;;
22768;SDS011;13001;51.968;5.918;2023-03-08T03:38:54;331.07;;;307.83;;
22768;SDS011;13001;51.968;5.918;2023-03-08T03:41:22;320.27;;;296.83;;
22768;SDS011;13001;51.968;5.918;2023-03-08T03:43:49;315.10;;;290.63;;
22768;SDS011;13001;51.968;5.918;2023-03-08T03:46:17;326.47;;;301.93;;
22768;SDS011;13001;51.968;5.918;2023-03-08T03:48:45;332.23;;;306.50;;
22768;SDS011;13001;51.968;5.918;2023-03-08T03:51:18;330.57;;;303.63;;
22768;SDS011;13001;51.968;5.918;2023-03-08T03:53:42;327.20;;;302.43;;
22768;SDS011;13001;51.968;5.918;2023-03-08T03:56:11;327.13;;;300.50;;
22768;SDS011;13001;51.968;5.918;2023-03-08T03:58:38;330.03;;;303.47;;
22768;SDS011;13001;51.968;5.918;2023-03-08T04:01:14;298.67;;;273.67;;
22768;SDS011;13001;51.968;5.918;2023-03-08T04:03:37;321.37;;;294.63;;
22768;SDS011;13001;51.968;5.918;2023-03-08T04:06:10;320.30;;;295.23;;
22768;SDS011;13001;51.968;5.918;2023-03-08T04:08:33;322.37;;;296.67;;
22768;SDS011;13001;51.968;5.918;2023-03-08T04:11:01;329.37;;;302.30;;
22768;SDS011;13001;51.968;5.918;2023-03-08T04:13:28;322.33;;;296.83;;
22768;SDS011;13001;51.968;5.918;2023-03-08T04:15:55;338.43;;;310.40;;
22768;SDS011;13001;51.968;5.918;2023-03-08T04:18:22;337.13;;;309.43;;
22768;SDS011;13001;51.968;5.918;2023-03-08T04:20:50;342.17;;;315.47;;
22768;SDS011;13001;51.968;5.918;2023-03-08T04:23:17;335.13;;;310.53;;
22768;SDS011;13001;51.968;5.918;2023-03-08T04:25:46;315.17;;;291.53;;
22768;SDS011;13001;51.968;5.918;2023-03-08T04:28:14;322.03;;;297.53;;
22768;SDS011;13001;51.968;5.918;2023-03-08T04:30:42;336.97;;;311.40;;
22768;SDS011;13001;51.968;5.918;2023-03-08T04:33:09;337.53;;;311.80;;
22768;SDS011;13001;51.968;5.918;2023-03-08T04:35:36;327.87;;;303.23;;
22768;SDS011;13001;51.968;5.918;2023-03-08T04:38:04;326.07;;;300.60;;
22768;SDS011;13001;51.968;5.918;2023-03-08T04:40:31;297.33;;;274.70;;
22768;SDS011;13001;51.968;5.918;2023-03-08T04:42:58;290.07;;;267.33;;
22768;SDS011;13001;51.968;5.918;2023-03-08T04:45:25;309.13;;;286.00;;
22768;SDS011;13001;51.968;5.918;2023-03-08T04:47:53;310.33;;;286.50;;
22768;SDS011;13001;51.968;5.918;2023-03-08T04:50:20;296.83;;;273.90;;
22768;SDS011;13001;51.968;5.918;2023-03-08T04:52:47;306.33;;;283.17;;
22768;SDS011;13001;51.968;5.918;2023-03-08T04:55:14;286.97;;;263.30;;
22768;SDS011;13001;51.968;5.918;2023-03-08T04:57:42;301.00;;;278.10;;
22768;SDS011;13001;51.968;5.918;2023-03-08T05:00:09;299.03;;;276.07;;
22768;SDS011;13001;51.968;5.918;2023-03-08T05:02:37;305.93;;;282.07;;
22768;SDS011;13001;51.968;5.918;2023-03-08T05:05:05;306.03;;;282.47;;
22768;SDS011;13001;51.968;5.918;2023-03-08T05:07:32;322.70;;;298.43;;
22768;SDS011;13001;51.968;5.918;2023-03-08T05:09:59;309.23;;;285.17;;
22768;SDS011;13001;51.968;5.918;2023-03-08T05:12:27;321.80;;;296.93;;
22768;SDS011;13001;51.968;5.918;2023-03-08T05:14:54;313.37;;;289.00;;
22768;SDS011;13001;51.968;5.918;2023-03-08T05:17:21;295.97;;;272.87;;
22768;SDS011;13001;51.968;5.918;2023-03-08T05:19:48;313.73;;;289.83;;
22768;SDS011;13001;51.968;5.918;2023-03-08T05:22:16;315.03;;;291.13;;
22768;SDS011;13001;51.968;5.918;2023-03-08T05:24:43;319.07;;;294.83;;
22768;SDS011;13001;51.968;5.918;2023-03-08T05:27:11;318.90;;;294.07;;
22768;SDS011;13001;51.968;5.918;2023-03-08T05:29:38;310.47;;;286.50;;
22768;SDS011;13001;51.968;5.918;2023-03-08T05:32:09;290.77;;;268.93;;
22768;SDS011;13001;51.968;5.918;2023-03-08T05:34:34;295.57;;;272.67;;
22768;SDS011;13001;51.968;5.918;2023-03-08T05:37:02;306.13;;;282.30;;
22768;SDS011;13001;51.968;5.918;2023-03-08T05:39:29;309.80;;;284.00;;
22768;SDS011;13001;51.968;5.918;2023-03-08T05:41:56;311.93;;;288.90;;
22768;SDS011;13001;51.968;5.918;2023-03-08T05:44:23;308.80;;;286.00;;
22768;SDS011;13001;51.968;5.918;2023-03-08T05:46:51;333.93;;;308.90;;
22768;SDS011;13001;51.968;5.918;2023-03-08T05:49:18;337.37;;;311.83;;
22768;SDS011;13001;51.968;5.918;2023-03-08T05:51:46;320.10;;;296.43;;
22768;SDS011;13001;51.968;5.918;2023-03-08T05:54:13;340.10;;;314.00;;
22768;SDS011;13001;51.968;5.918;2023-03-08T05:56:40;351.67;;;326.27;;
22768;SDS011;13001;51.968;5.918;2023-03-08T05:59:07;350.53;;;325.03;;
22768;SDS011;13001;51.968;5.918;2023-03-08T06:01:35;366.27;;;338.67;;
22768;SDS011;13001;51.968;5.918;2023-03-08T06:04:02;317.97;;;293.67;;
22768;SDS011;13001;51.968;5.918;2023-03-08T06:06:29;364.83;;;335.70;;
22768;SDS011;13001;51.968;5.918;2023-03-08T06:08:57;332.13;;;305.90;;
22768;SDS011;13001;51.968;5.918;2023-03-08T06:11:24;407.83;;;378.50;;
22768;SDS011;13001;51.968;5.918;2023-03-08T06:13:51;373.70;;;342.53;;
22768;SDS011;13001;51.968;5.918;2023-03-08T06:16:19;391.00;;;358.37;;
22768;SDS011;13001;51.968;5.918;2023-03-08T06:18:47;436.90;;;403.33;;
22768;SDS011;13001;51.968;5.918;2023-03-08T06:21:15;444.33;;;411.20;;
22768;SDS011;13001;51.968;5.918;2023-03-08T06:23:43;442.13;;;409.63;;
22768;SDS011;13001;51.968;5.918;2023-03-08T06:26:11;491.90;;;456.37;;
22768;SDS011;13001;51.968;5.918;2023-03-08T06:28:38;415.87;;;386.73;;
22768;SDS011;13001;51.968;5.918;2023-03-08T06:31:07;464.07;;;428.53;;
22768;SDS011;13001;51.968;5.918;2023-03-08T06:33:35;490.13;;;454.77;;
22768;SDS011;13001;51.968;5.918;2023-03-08T06:36:03;474.57;;;440.33;;
22768;SDS011;13001;51.968;5.918;2023-03-08T06:38:32;431.07;;;399.53;;
22768;SDS011;13001;51.968;5.918;2023-03-08T06:41:00;400.13;;;370.37;;
22768;SDS011;13001;51.968;5.918;2023-03-08T06:43:28;384.47;;;356.90;;
22768;SDS011;13001;51.968;5.918;2023-03-08T06:45:56;398.67;;;370.97;;
22768;SDS011;13001;51.968;5.918;2023-03-08T06:48:23;420.50;;;391.63;;
22768;SDS011;13001;51.968;5.918;2023-03-08T06:50:51;472.13;;;438.17;;
22768;SDS011;13001;51.968;5.918;2023-03-08T06:53:18;393.47;;;365.83;;
22768;SDS011;13001;51.968;5.918;2023-03-08T06:55:45;338.40;;;315.00;;
22768;SDS011;13001;51.968;5.918;2023-03-08T06:58:12;406.70;;;378.57;;
22768;SDS011;13001;51.968;5.918;2023-03-08T07:00:40;442.97;;;411.37;;
22768;SDS011;13001;51.968;5.918;2023-03-08T07:03:07;415.43;;;386.00;;
22768;SDS011;13001;51.968;5.918;2023-03-08T07:05:34;447.37;;;415.60;;
22768;SDS011;13001;51.968;5.918;2023-03-08T07:08:01;411.30;;;383.00;;
22768;SDS011;13001;51.968;5.918;2023-03-08T07:10:29;393.83;;;366.30;;
22768;SDS011;13001;51.968;5.918;2023-03-08T07:12:56;459.93;;;426.47;;
22768;SDS011;13001;51.968;5.918;2023-03-08T07:15:24;442.40;;;411.53;;
22768;SDS011;13001;51.968;5.918;2023-03-08T07:17:52;425.80;;;396.47;;
22768;SDS011;13001;51.968;5.918;2023-03-08T07:20:23;427.80;;;398.43;;
22768;SDS011;13001;51.968;5.918;2023-03-08T07:22:51;431.63;;;401.47;;
22768;SDS011;13001;51.968;5.918;2023-03-08T07:25:19;364.70;;;339.10;;
22768;SDS011;13001;51.968;5.918;2023-03-08T07:27:46;411.10;;;381.73;;
22768;SDS011;13001;51.968;5.918;2023-03-08T07:30:14;421.67;;;391.00;;
22768;SDS011;13001;51.968;5.918;2023-03-08T07:32:41;412.03;;;382.93;;
22768;SDS011;13001;51.968;5.918;2023-03-08T07:35:10;356.23;;;330.80;;
22768;SDS011;13001;51.968;5.918;2023-03-08T07:37:38;449.97;;;417.20;;
22768;SDS011;13001;51.968;5.918;2023-03-08T07:40:06;373.17;;;346.80;;
22768;SDS011;13001;51.968;5.918;2023-03-08T07:42:33;399.43;;;370.93;;
22768;SDS011;13001;51.968;5.918;2023-03-08T07:45:00;291.10;;;269.27;;
22768;SDS011;13001;51.968;5.918;2023-03-08T07:47:28;331.10;;;306.37;;
22768;SDS011;13001;51.968;5.918;2023-03-08T07:49:55;370.03;;;343.67;;
22768;SDS011;13001;51.968;5.918;2023-03-08T07:52:26;294.33;;;271.30;;
22768;SDS011;13001;51.968;5.918;2023-03-08T07:54:56;333.40;;;309.40;;
22768;SDS011;13001;51.968;5.918;2023-03-08T07:57:22;342.97;;;318.53;;
22768;SDS011;13001;51.968;5.918;2023-03-08T07:59:50;314.70;;;291.87;;
22768;SDS011;13001;51.968;5.918;2023-03-08T08:02:17;288.47;;;266.43;;
22768;SDS011;13001;51.968;5.918;2023-03-08T08:04:45;315.63;;;291.57;;
22768;SDS011;13001;51.968;5.918;2023-03-08T08:07:13;302.37;;;280.03;;
22768;SDS011;13001;51.968;5.918;2023-03-08T08:09:40;268.03;;;247.60;;
22768;SDS011;13001;51.968;5.918;2023-03-08T08:12:08;282.40;;;259.23;;
22768;SDS011;13001;51.968;5.918;2023-03-08T08:14:35;247.83;;;227.83;;
22768;SDS011;13001;51.968;5.918;2023-03-08T08:17:02;238.73;;;219.20;;
22768;SDS011;13001;51.968;5.918;2023-03-08T08:19:30;261.00;;;239.83;;
22768;SDS011;13001;51.968;5.918;2023-03-08T08:21:57;303.37;;;280.17;;
22768;SDS011;13001;51.968;5.918;2023-03-08T08:24:25;293.40;;;270.87;;
22768;SDS011;13001;51.968;5.918;2023-03-08T08:26:53;273.70;;;251.93;;
22768;SDS011;13001;51.968;5.918;2023-03-08T08:29:20;285.33;;;263.00;;
22768;SDS011;13001;51.968;5.918;2023-03-08T08:31:47;291.60;;;268.90;;
22768;SDS011;13001;51.968;5.918;2023-03-08T08:34:16;255.33;;;234.77;;
22768;SDS011;13001;51.968;5.918;2023-03-08T08:36:43;233.03;;;214.47;;
22768;SDS011;13001;51.968;5.918;2023-03-08T08:39:11;209.67;;;192.37;;
22768;SDS011;13001;51.968;5.918;2023-03-08T08:41:38;243.57;;;223.50;;
22768;SDS011;13001;51.968;5.918;2023-03-08T08:44:05;154.10;;;141.67;;
22768;SDS011;13001;51.968;5.918;2023-03-08T08:46:32;154.33;;;142.33;;
22768;SDS011;13001;51.968;5.918;2023-03-08T08:49:01;137.10;;;126.37;;
22768;SDS011;13001;51.968;5.918;2023-03-08T08:51:30;124.43;;;114.80;;
22768;SDS011;13001;51.968;5.918;2023-03-08T08:53:57;124.53;;;114.73;;
22768;SDS011;13001;51.968;5.918;2023-03-08T08:56:25;148.63;;;137.37;;
22768;SDS011;13001;51.968;5.918;2023-03-08T08:58:58;99.07;;;90.57;;
22768;SDS011;13001;51.968;5.918;2023-03-08T09:01:23;85.83;;;78.73;;
22768;SDS011;13001;51.968;5.918;2023-03-08T09:03:51;143.33;;;131.60;;
22768;SDS011;13001;51.968;5.918;2023-03-08T09:06:19;66.23;;;60.30;;
22768;SDS011;13001;51.968;5.918;2023-03-08T09:08:55;185.33;;;169.83;;
22768;SDS011;13001;51.968;5.918;2023-03-08T09:11:18;85.33;;;78.00;;
22768;SDS011;13001;51.968;5.918;2023-03-08T09:13:45;90.10;;;82.37;;
22768;SDS011;13001;51.968;5.918;2023-03-08T09:16:16;168.83;;;154.30;;
22768;SDS011;13001;51.968;5.918;2023-03-08T09:18:43;115.93;;;106.27;;
22768;SDS011;13001;51.968;5.918;2023-03-08T09:21:11;119.90;;;110.30;;
22768;SDS011;13001;51.968;5.918;2023-03-08T09:23:39;147.77;;;135.47;;
22768;SDS011;13001;51.968;5.918;2023-03-08T09:26:06;204.47;;;187.97;;
22768;SDS011;13001;51.968;5.918;2023-03-08T09:28:34;147.73;;;136.13;;
22768;SDS011;13001;51.968;5.918;2023-03-08T09:31:10;93.53;;;86.50;;
22768;SDS011;13001;51.968;5.918;2023-03-08T09:33:34;86.73;;;80.23;;
22768;SDS011;13001;51.968;5.918;2023-03-08T09:36:02;158.90;;;146.83;;
22768;SDS011;13001;51.968;5.918;2023-03-08T09:38:29;119.73;;;110.33;;
22768;SDS011;13001;51.968;5.918;2023-03-08T09:41:04;62.03;;;56.83;;
22768;SDS011;13001;51.968;5.918;2023-03-08T09:43:28;134.40;;;123.60;;
22768;SDS011;13001;51.968;5.918;2023-03-08T09:45:54;93.53;;;86.77;;
22768;SDS011;13001;51.968;5.918;2023-03-08T09:48:22;99.97;;;92.40;;
22768;SDS011;13001;51.968;5.918;2023-03-08T09:50:51;150.23;;;138.57;;
22768;SDS011;13001;51.968;5.918;2023-03-08T09:53:26;160.70;;;148.27;;
22768;SDS011;13001;51.968;5.918;2023-03-08T09:56:00;137.80;;;126.97;;
22768;SDS011;13001;51.968;5.918;2023-03-08T10:01:05;149.87;;;138.30;;
22768;SDS011;13001;51.968;5.918;2023-03-08T10:03:35;140.00;;;129.47;;
22768;SDS011;13001;51.968;5.918;2023-03-08T10:06:01;175.70;;;159.40;;
22768;SDS011;13001;51.968;5.918;2023-03-08T10:08:34;116.07;;;107.63;;
22768;SDS011;13001;51.968;5.918;2023-03-08T10:10:57;461.43;;;414.90;;
22768;SDS011;13001;51.968;5.918;2023-03-08T10:13:33;218.97;;;201.67;;
22768;SDS011;13001;51.968;5.918;2023-03-08T10:16:10;212.30;;;195.00;;
22768;SDS011;13001;51.968;5.918;2023-03-08T10:18:43;87.27;;;81.17;;
22768;SDS011;13001;51.968;5.918;2023-03-08T10:21:11;113.50;;;105.73;;
22768;SDS011;13001;51.968;5.918;2023-03-08T10:23:39;121.53;;;112.80;;
22768;SDS011;13001;51.968;5.918;2023-03-08T10:26:10;283.03;;;258.73;;
22768;SDS011;13001;51.968;5.918;2023-03-08T10:28:39;477.50;;;431.07;;
22768;SDS011;13001;51.968;5.918;2023-03-08T10:31:15;241.80;;;221.87;;
22768;SDS011;13001;51.968;5.918;2023-03-08T10:33:36;160.03;;;147.03;;
22768;SDS011;13001;51.968;5.918;2023-03-08T10:36:07;112.77;;;104.70;;
22768;SDS011;13001;51.968;5.918;2023-03-08T10:38:38;229.23;;;211.43;;
22768;SDS011;13001;51.968;5.918;2023-03-08T10:43:38;191.27;;;176.57;;
22768;SDS011;13001;51.968;5.918;2023-03-08T10:46:11;205.17;;;189.63;;
22768;SDS011;13001;51.968;5.918;2023-03-08T10:48:39;160.10;;;148.03;;
22768;SDS011;13001;51.968;5.918;2023-03-08T10:51:14;195.43;;;180.77;;
22768;SDS011;13001;51.968;5.918;2023-03-08T10:53:35;183.20;;;168.77;;
22768;SDS011;13001;51.968;5.918;2023-03-08T10:56:02;498.67;;;450.40;;
22768;SDS011;13001;51.968;5.918;2023-03-08T10:58:31;150.87;;;139.97;;
22768;SDS011;13001;51.968;5.918;2023-03-08T11:01:00;316.87;;;288.87;;
22768;SDS011;13001;51.968;5.918;2023-03-08T11:03:27;486.80;;;439.73;;
22768;SDS011;13001;51.968;5.918;2023-03-08T11:06:14;243.10;;;222.97;;
22768;SDS011;13001;51.968;5.918;2023-03-08T11:08:39;89.30;;;83.13;;
22768;SDS011;13001;51.968;5.918;2023-03-08T11:13:40;141.20;;;130.43;;
22768;SDS011;13001;51.968;5.918;2023-03-08T11:16:13;308.43;;;279.00;;
22768;SDS011;13001;51.968;5.918;2023-03-08T11:21:16;475.73;;;425.97;;
22768;SDS011;13001;51.968;5.918;2023-03-08T11:26:17;103.23;;;95.87;;
22768;SDS011;13001;51.968;5.918;2023-03-08T11:31:37;253.67;;;230.60;;
22768;SDS011;13001;51.968;5.918;2023-03-08T11:34:22;174.17;;;160.17;;
22768;SDS011;13001;51.968;5.918;2023-03-08T11:39:20;116.13;;;108.17;;
22768;SDS011;13001;51.968;5.918;2023-03-08T11:41:54;237.83;;;219.50;;
22768;SDS011;13001;51.968;5.918;2023-03-08T11:57:59;234.80;;;216.27;;
22768;SDS011;13001;51.968;5.918;2023-03-08T12:00:28;226.83;;;207.67;;
22768;SDS011;13001;51.968;5.918;2023-03-08T12:02:56;187.37;;;172.90;;
22768;SDS011;13001;51.968;5.918;2023-03-08T12:05:29;319.03;;;291.07;;
22768;SDS011;13001;51.968;5.918;2023-03-08T12:08:01;271.63;;;249.70;;
22768;SDS011;13001;51.968;5.918;2023-03-08T12:10:51;248.53;;;227.90;;
22768;SDS011;13001;51.968;5.918;2023-03-08T12:13:02;155.53;;;144.20;;
22768;SDS011;13001;51.968;5.918;2023-03-08T12:15:31;181.53;;;166.90;;
22768;SDS011;13001;51.968;5.918;2023-03-08T12:18:07;228.67;;;210.33;;
22768;SDS011;13001;51.968;5.918;2023-03-08T12:20:34;144.73;;;134.57;;
22768;SDS011;13001;51.968;5.918;2023-03-08T12:25:39;359.57;;;326.17;;
22768;SDS011;13001;51.968;5.918;2023-03-08T12:33:22;143.07;;;133.27;;
22768;SDS011;13001;51.968;5.918;2023-03-08T12:35:53;226.33;;;209.27;;
22768;SDS011;13001;51.968;5.918;2023-03-08T12:40:51;355.93;;;325.77;;
22768;SDS011;13001;51.968;5.918;2023-03-08T12:48:29;374.10;;;340.73;;
22768;SDS011;13001;51.968;5.918;2023-03-08T12:51:04;374.20;;;339.97;;
22768;SDS011;13001;51.968;5.918;2023-03-08T12:53:33;372.97;;;337.17;;
22768;SDS011;13001;51.968;5.918;2023-03-08T12:56:01;283.23;;;259.87;;
22768;SDS011;13001;51.968;5.918;2023-03-08T12:58:29;359.10;;;326.07;;
22768;SDS011;13001;51.968;5.918;2023-03-08T13:00:58;90.13;;;84.13;;
22768;SDS011;13001;51.968;5.918;2023-03-08T13:03:35;193.90;;;178.17;;
22768;SDS011;13001;51.968;5.918;2023-03-08T13:05:57;180.67;;;166.27;;
22768;SDS011;13001;51.968;5.918;2023-03-08T13:08:30;332.77;;;304.23;;
22768;SDS011;13001;51.968;5.918;2023-03-08T13:11:07;195.67;;;180.20;;
22768;SDS011;13001;51.968;5.918;2023-03-08T13:13:38;242.47;;;222.50;;
22768;SDS011;13001;51.968;5.918;2023-03-08T13:16:14;117.53;;;109.70;;
22768;SDS011;13001;51.968;5.918;2023-03-08T13:18:34;415.40;;;376.63;;
22768;SDS011;13001;51.968;5.918;2023-03-08T13:23:52;293.93;;;268.50;;
22768;SDS011;13001;51.968;5.918;2023-03-08T13:28:49;170.70;;;157.90;;
22768;SDS011;13001;51.968;5.918;2023-03-08T13:31:18;409.17;;;372.33;;
22768;SDS011;13001;51.968;5.918;2023-03-08T13:33:47;225.73;;;206.90;;
22768;SDS011;13001;51.968;5.918;2023-03-08T13:36:21;168.63;;;156.47;;
22768;SDS011;13001;51.968;5.918;2023-03-08T13:38:58;222.73;;;206.20;;
22768;SDS011;13001;51.968;5.918;2023-03-08T13:41:36;450.47;;;408.60;;
22768;SDS011;13001;51.968;5.918;2023-03-08T13:44:04;310.33;;;285.27;;
22768;SDS011;13001;51.968;5.918;2023-03-08T13:46:33;294.93;;;267.63;;
22768;SDS011;13001;51.968;5.918;2023-03-08T13:49:00;165.63;;;153.57;;
22768;SDS011;13001;51.968;5.918;2023-03-08T13:51:28;422.00;;;382.30;;
22768;SDS011;13001;51.968;5.918;2023-03-08T13:53:56;199.60;;;184.43;;
22768;SDS011;13001;51.968;5.918;2023-03-08T13:56:26;176.13;;;163.07;;
22768;SDS011;13001;51.968;5.918;2023-03-08T13:58:55;169.57;;;157.00;;
22768;SDS011;13001;51.968;5.918;2023-03-08T14:01:24;134.00;;;124.33;;
22768;SDS011;13001;51.968;5.918;2023-03-08T14:03:52;239.60;;;218.47;;
22768;SDS011;13001;51.968;5.918;2023-03-08T14:06:27;107.87;;;100.40;;
22768;SDS011;13001;51.968;5.918;2023-03-08T14:08:54;111.47;;;104.40;;
22768;SDS011;13001;51.968;5.918;2023-03-08T14:11:28;132.40;;;123.27;;
22768;SDS011;13001;51.968;5.918;2023-03-08T14:13:56;164.20;;;152.90;;
22768;SDS011;13001;51.968;5.918;2023-03-08T14:16:38;167.10;;;155.17;;
22768;SDS011;13001;51.968;5.918;2023-03-08T14:19:37;160.40;;;149.03;;
22768;SDS011;13001;51.968;5.918;2023-03-08T14:21:45;254.00;;;234.43;;
22768;SDS011;13001;51.968;5.918;2023-03-08T14:24:14;192.00;;;177.43;;
22768;SDS011;13001;51.968;5.918;2023-03-08T14:26:36;168.93;;;156.17;;
22768;SDS011;13001;51.968;5.918;2023-03-08T14:29:20;387.03;;;349.90;;
22768;SDS011;13001;51.968;5.918;2023-03-08T14:34:23;234.73;;;214.53;;
22768;SDS011;13001;51.968;5.918;2023-03-08T14:36:52;122.23;;;113.97;;
22768;SDS011;13001;51.968;5.918;2023-03-08T14:39:20;190.83;;;176.07;;
22768;SDS011;13001;51.968;5.918;2023-03-08T14:41:49;147.23;;;137.07;;
22768;SDS011;13001;51.968;5.918;2023-03-08T14:44:20;315.60;;;289.37;;
22768;SDS011;13001;51.968;5.918;2023-03-08T14:46:48;124.00;;;115.23;;
22768;SDS011;13001;51.968;5.918;2023-03-08T14:49:21;124.47;;;116.17;;
22768;SDS011;13001;51.968;5.918;2023-03-08T14:51:48;132.33;;;123.50;;
22768;SDS011;13001;51.968;5.918;2023-03-08T14:54:20;225.77;;;209.00;;
22768;SDS011;13001;51.968;5.918;2023-03-08T14:56:48;126.40;;;117.60;;
22768;SDS011;13001;51.968;5.918;2023-03-08T14:59:15;170.23;;;157.20;;
22768;SDS011;13001;51.968;5.918;2023-03-08T15:01:43;166.30;;;154.97;;
22768;SDS011;13001;51.968;5.918;2023-03-08T15:04:24;230.50;;;212.43;;
22768;SDS011;13001;51.968;5.918;2023-03-08T15:06:49;167.33;;;155.07;;
22768;SDS011;13001;51.968;5.918;2023-03-08T15:09:18;179.33;;;166.07;;